sensor_id;sensor_type;location;lat;lon;timestamp;P1;P2;P0
70255;PMS5003;57669;52.624;-1.688;2023-03-03T00:00:30;4;4;
70255;PMS5003;57669;52.624;-1.688;2023-03-03T00:02:55;5;5;
70255;PMS5003;57669;52.624;-1.688;2023-03-03T00:05:21;5;5;
70255;PMS5003;57669;52.624;-1.688;2023-03-03T00:07:46;6;6;
70255;PMS5003;57669;52.624;-1.688;2023-03-03T00:10:11;7;6;
70255;PMS5003;57669;52.624;-1.688;2023-03-03T00:12:36;9;9;
70255;PMS5003;57669;52.624;-1.688;2023-03-03T00:15:02;5;5;
70255;PMS5003;57669;52.624;-1.688;2023-03-03T00:17:27;7;7;
70255;PMS5003;57669;52.624;-1.688;2023-03-03T00:19:52;7;6;
70255;PMS5003;57669;52.624;-1.688;2023-03-03T00:22:21;7;7;
70255;PMS5003;57669;52.624;-1.688;2023-03-03T00:24:42;7;7;
70255;PMS5003;57669;52.624;-1.688;2023-03-03T00:27:14;7;6;
70255;PMS5003;57669;52.624;-1.688;2023-03-03T00:29:33;5;5;
70255;PMS5003;57669;52.624;-1.688;2023-03-03T00:32:02;6;6;
70255;PMS5003;57669;52.624;-1.688;2023-03-03T00:34:23;6;5;
70255;PMS5003;57669;52.624;-1.688;2023-03-03T00:36:47;7;6;
70255;PMS5003;57669;52.624;-1.688;2023-03-03T00:39:17;8;8;
70255;PMS5003;57669;52.624;-1.688;2023-03-03T00:41:37;9;7;
70255;PMS5003;57669;52.624;-1.688;2023-03-03T00:44:18;6;6;
70255;PMS5003;57669;52.624;-1.688;2023-03-03T00:46:28;8;8;
70255;PMS5003;57669;52.624;-1.688;2023-03-03T00:48:52;5;5;
70255;PMS5003;57669;52.624;-1.688;2023-03-03T00:51:20;7;7;
70255;PMS5003;57669;52.624;-1.688;2023-03-03T00:53:42;9;8;
70255;PMS5003;57669;52.624;-1.688;2023-03-03T00:56:08;7;7;
70255;PMS5003;57669;52.624;-1.688;2023-03-03T00:58:33;9;8;
70255;PMS5003;57669;52.624;-1.688;2023-03-03T01:00:58;7;7;
70255;PMS5003;57669;52.624;-1.688;2023-03-03T01:03:24;6;6;
70255;PMS5003;57669;52.624;-1.688;2023-03-03T01:05:49;6;6;
70255;PMS5003;57669;52.624;-1.688;2023-03-03T01:08:14;7;7;
70255;PMS5003;57669;52.624;-1.688;2023-03-03T01:10:40;6;6;
70255;PMS5003;57669;52.624;-1.688;2023-03-03T01:13:04;5;5;
70255;PMS5003;57669;52.624;-1.688;2023-03-03T01:15:29;5;5;
70255;PMS5003;57669;52.624;-1.688;2023-03-03T01:17:54;5;4;
70255;PMS5003;57669;52.624;-1.688;2023-03-03T01:20:20;7;7;
70255;PMS5003;57669;52.624;-1.688;2023-03-03T01:22:44;6;6;
70255;PMS5003;57669;52.624;-1.688;2023-03-03T01:25:10;6;6;
70255;PMS5003;57669;52.624;-1.688;2023-03-03T01:27:35;7;7;
70255;PMS5003;57669;52.624;-1.688;2023-03-03T01:30:00;7;7;
70255;PMS5003;57669;52.624;-1.688;2023-03-03T01:32:25;5;5;
70255;PMS5003;57669;52.624;-1.688;2023-03-03T01:34:50;5;4;
70255;PMS5003;57669;52.624;-1.688;2023-03-03T01:37:15;6;4;
70255;PMS5003;57669;52.624;-1.688;2023-03-03T01:39:40;6;6;
70255;PMS5003;57669;52.624;-1.688;2023-03-03T01:42:05;4;4;
70255;PMS5003;57669;52.624;-1.688;2023-03-03T01:44:32;7;7;
70255;PMS5003;57669;52.624;-1.688;2023-03-03T01:47:04;5;5;
70255;PMS5003;57669;52.624;-1.688;2023-03-03T01:49:21;4;4;
70255;PMS5003;57669;52.624;-1.688;2023-03-03T01:51:47;7;6;
70255;PMS5003;57669;52.624;-1.688;2023-03-03T01:54:11;4;4;
70255;PMS5003;57669;52.624;-1.688;2023-03-03T01:56:35;5;5;
70255;PMS5003;57669;52.624;-1.688;2023-03-03T01:59:02;6;6;
70255;PMS5003;57669;52.624;-1.688;2023-03-03T02:01:26;5;5;
70255;PMS5003;57669;52.624;-1.688;2023-03-03T02:03:51;7;6;
70255;PMS5003;57669;52.624;-1.688;2023-03-03T02:06:17;6;6;
70255;PMS5003;57669;52.624;-1.688;2023-03-03T02:08:43;5;5;
70255;PMS5003;57669;52.624;-1.688;2023-03-03T02:11:07;6;5;
70255;PMS5003;57669;52.624;-1.688;2023-03-03T02:13:32;5;5;
70255;PMS5003;57669;52.624;-1.688;2023-03-03T02:15:57;6;5;
70255;PMS5003;57669;52.624;-1.688;2023-03-03T02:18:22;6;6;
70255;PMS5003;57669;52.624;-1.688;2023-03-03T02:20:50;6;6;
70255;PMS5003;57669;52.624;-1.688;2023-03-03T02:23:15;5;5;
70255;PMS5003;57669;52.624;-1.688;2023-03-03T02:25:40;7;7;
70255;PMS5003;57669;52.624;-1.688;2023-03-03T02:28:03;5;5;
70255;PMS5003;57669;52.624;-1.688;2023-03-03T02:30:28;8;7;
70255;PMS5003;57669;52.624;-1.688;2023-03-03T02:32:53;6;5;
70255;PMS5003;57669;52.624;-1.688;2023-03-03T02:37:43;7;6;
70255;PMS5003;57669;52.624;-1.688;2023-03-03T02:40:09;7;7;
70255;PMS5003;57669;52.624;-1.688;2023-03-03T02:42:34;7;7;
70255;PMS5003;57669;52.624;-1.688;2023-03-03T02:44:59;5;5;
70255;PMS5003;57669;52.624;-1.688;2023-03-03T02:47:24;6;6;
70255;PMS5003;57669;52.624;-1.688;2023-03-03T02:49:49;7;7;
70255;PMS5003;57669;52.624;-1.688;2023-03-03T02:52:14;7;6;
70255;PMS5003;57669;52.624;-1.688;2023-03-03T02:54:39;8;8;
70255;PMS5003;57669;52.624;-1.688;2023-03-03T02:57:04;6;6;
70255;PMS5003;57669;52.624;-1.688;2023-03-03T02:59:29;8;8;
70255;PMS5003;57669;52.624;-1.688;2023-03-03T03:01:54;9;9;
70255;PMS5003;57669;52.624;-1.688;2023-03-03T03:04:20;9;9;
70255;PMS5003;57669;52.624;-1.688;2023-03-03T03:06:45;9;9;
70255;PMS5003;57669;52.624;-1.688;2023-03-03T03:09:11;9;9;
70255;PMS5003;57669;52.624;-1.688;2023-03-03T03:11:36;11;11;
70255;PMS5003;57669;52.624;-1.688;2023-03-03T03:14:01;10;10;
70255;PMS5003;57669;52.624;-1.688;2023-03-03T03:16:26;15;15;
70255;PMS5003;57669;52.624;-1.688;2023-03-03T03:18:51;12;12;
70255;PMS5003;57669;52.624;-1.688;2023-03-03T03:21:16;11;11;
70255;PMS5003;57669;52.624;-1.688;2023-03-03T03:23:42;10;10;
70255;PMS5003;57669;52.624;-1.688;2023-03-03T03:26:08;13;13;
70255;PMS5003;57669;52.624;-1.688;2023-03-03T03:28:33;16;16;
70255;PMS5003;57669;52.624;-1.688;2023-03-03T03:30:58;13;12;
70255;PMS5003;57669;52.624;-1.688;2023-03-03T03:33:23;11;11;
70255;PMS5003;57669;52.624;-1.688;2023-03-03T03:35:48;13;13;
70255;PMS5003;57669;52.624;-1.688;2023-03-03T03:38:13;12;12;
70255;PMS5003;57669;52.624;-1.688;2023-03-03T03:40:38;16;15;
70255;PMS5003;57669;52.624;-1.688;2023-03-03T03:43:04;12;12;
70255;PMS5003;57669;52.624;-1.688;2023-03-03T03:45:29;14;14;
70255;PMS5003;57669;52.624;-1.688;2023-03-03T03:47:54;13;13;
70255;PMS5003;57669;52.624;-1.688;2023-03-03T03:50:20;12;12;
70255;PMS5003;57669;52.624;-1.688;2023-03-03T03:52:45;12;12;
70255;PMS5003;57669;52.624;-1.688;2023-03-03T03:55:10;12;12;
70255;PMS5003;57669;52.624;-1.688;2023-03-03T03:57:35;10;10;
70255;PMS5003;57669;52.624;-1.688;2023-03-03T04:00:00;11;11;
70255;PMS5003;57669;52.624;-1.688;2023-03-03T04:02:25;10;10;
70255;PMS5003;57669;52.624;-1.688;2023-03-03T04:04:50;13;13;
70255;PMS5003;57669;52.624;-1.688;2023-03-03T04:07:15;10;10;
70255;PMS5003;57669;52.624;-1.688;2023-03-03T04:09:40;14;12;
70255;PMS5003;57669;52.624;-1.688;2023-03-03T04:12:05;13;13;
70255;PMS5003;57669;52.624;-1.688;2023-03-03T04:14:30;13;13;
70255;PMS5003;57669;52.624;-1.688;2023-03-03T04:16:56;10;10;
70255;PMS5003;57669;52.624;-1.688;2023-03-03T04:19:23;14;12;
70255;PMS5003;57669;52.624;-1.688;2023-03-03T04:21:46;17;14;
70255;PMS5003;57669;52.624;-1.688;2023-03-03T04:24:12;17;17;
70255;PMS5003;57669;52.624;-1.688;2023-03-03T04:26:38;12;12;
70255;PMS5003;57669;52.624;-1.688;2023-03-03T04:29:03;15;15;
70255;PMS5003;57669;52.624;-1.688;2023-03-03T04:31:29;19;19;
70255;PMS5003;57669;52.624;-1.688;2023-03-03T04:33:54;18;17;
70255;PMS5003;57669;52.624;-1.688;2023-03-03T04:36:20;15;15;
70255;PMS5003;57669;52.624;-1.688;2023-03-03T04:38:45;14;12;
70255;PMS5003;57669;52.624;-1.688;2023-03-03T04:41:10;12;12;
70255;PMS5003;57669;52.624;-1.688;2023-03-03T04:43:35;15;15;
70255;PMS5003;57669;52.624;-1.688;2023-03-03T04:46:00;17;17;
70255;PMS5003;57669;52.624;-1.688;2023-03-03T04:48:26;16;16;
70255;PMS5003;57669;52.624;-1.688;2023-03-03T04:50:51;14;14;
70255;PMS5003;57669;52.624;-1.688;2023-03-03T04:53:17;19;19;
70255;PMS5003;57669;52.624;-1.688;2023-03-03T04:55:42;20;20;
70255;PMS5003;57669;52.624;-1.688;2023-03-03T04:58:07;19;19;
70255;PMS5003;57669;52.624;-1.688;2023-03-03T05:00:32;19;19;
70255;PMS5003;57669;52.624;-1.688;2023-03-03T05:02:58;23;23;
70255;PMS5003;57669;52.624;-1.688;2023-03-03T05:05:24;23;23;
70255;PMS5003;57669;52.624;-1.688;2023-03-03T05:07:49;21;21;
70255;PMS5003;57669;52.624;-1.688;2023-03-03T05:10:15;20;19;
70255;PMS5003;57669;52.624;-1.688;2023-03-03T05:12:40;25;24;
70255;PMS5003;57669;52.624;-1.688;2023-03-03T05:15:06;22;22;
70255;PMS5003;57669;52.624;-1.688;2023-03-03T05:17:31;24;24;
70255;PMS5003;57669;52.624;-1.688;2023-03-03T05:19:57;23;22;
70255;PMS5003;57669;52.624;-1.688;2023-03-03T05:22:22;23;22;
70255;PMS5003;57669;52.624;-1.688;2023-03-03T05:24:48;22;22;
70255;PMS5003;57669;52.624;-1.688;2023-03-03T05:27:13;26;26;
70255;PMS5003;57669;52.624;-1.688;2023-03-03T05:29:39;25;24;
70255;PMS5003;57669;52.624;-1.688;2023-03-03T05:32:04;29;28;
70255;PMS5003;57669;52.624;-1.688;2023-03-03T05:34:30;28;27;
70255;PMS5003;57669;52.624;-1.688;2023-03-03T05:36:55;28;28;
70255;PMS5003;57669;52.624;-1.688;2023-03-03T05:39:21;26;26;
70255;PMS5003;57669;52.624;-1.688;2023-03-03T05:41:46;24;24;
70255;PMS5003;57669;52.624;-1.688;2023-03-03T05:44:12;27;26;
70255;PMS5003;57669;52.624;-1.688;2023-03-03T05:46:38;26;23;
70255;PMS5003;57669;52.624;-1.688;2023-03-03T05:49:03;28;27;
70255;PMS5003;57669;52.624;-1.688;2023-03-03T05:51:29;21;21;
70255;PMS5003;57669;52.624;-1.688;2023-03-03T05:53:54;32;30;
70255;PMS5003;57669;52.624;-1.688;2023-03-03T05:56:19;29;29;
70255;PMS5003;57669;52.624;-1.688;2023-03-03T05:58:45;32;28;
70255;PMS5003;57669;52.624;-1.688;2023-03-03T06:01:10;24;23;
70255;PMS5003;57669;52.624;-1.688;2023-03-03T06:03:35;28;28;
70255;PMS5003;57669;52.624;-1.688;2023-03-03T06:06:01;28;26;
70255;PMS5003;57669;52.624;-1.688;2023-03-03T06:08:26;29;29;
70255;PMS5003;57669;52.624;-1.688;2023-03-03T06:10:51;23;23;
70255;PMS5003;57669;52.624;-1.688;2023-03-03T06:13:17;28;27;
70255;PMS5003;57669;52.624;-1.688;2023-03-03T06:15:42;32;31;
70255;PMS5003;57669;52.624;-1.688;2023-03-03T06:18:08;34;33;
70255;PMS5003;57669;52.624;-1.688;2023-03-03T06:20:33;30;29;
70255;PMS5003;57669;52.624;-1.688;2023-03-03T06:22:59;35;34;
70255;PMS5003;57669;52.624;-1.688;2023-03-03T06:25:24;31;29;
70255;PMS5003;57669;52.624;-1.688;2023-03-03T06:27:49;33;32;
70255;PMS5003;57669;52.624;-1.688;2023-03-03T06:30:15;29;29;
70255;PMS5003;57669;52.624;-1.688;2023-03-03T06:32:40;26;25;
70255;PMS5003;57669;52.624;-1.688;2023-03-03T06:35:06;27;27;
70255;PMS5003;57669;52.624;-1.688;2023-03-03T06:37:31;30;29;
70255;PMS5003;57669;52.624;-1.688;2023-03-03T06:39:57;38;38;
70255;PMS5003;57669;52.624;-1.688;2023-03-03T06:42:22;35;33;
70255;PMS5003;57669;52.624;-1.688;2023-03-03T06:44:47;33;32;
70255;PMS5003;57669;52.624;-1.688;2023-03-03T06:47:13;32;32;
70255;PMS5003;57669;52.624;-1.688;2023-03-03T06:49:38;31;28;
70255;PMS5003;57669;52.624;-1.688;2023-03-03T06:52:08;31;29;
70255;PMS5003;57669;52.624;-1.688;2023-03-03T06:54:30;27;26;
70255;PMS5003;57669;52.624;-1.688;2023-03-03T06:56:57;33;33;
70255;PMS5003;57669;52.624;-1.688;2023-03-03T06:59:20;31;29;
70255;PMS5003;57669;52.624;-1.688;2023-03-03T07:01:46;31;30;
70255;PMS5003;57669;52.624;-1.688;2023-03-03T07:04:15;34;34;
70255;PMS5003;57669;52.624;-1.688;2023-03-03T07:06:36;34;34;
70255;PMS5003;57669;52.624;-1.688;2023-03-03T07:09:04;42;42;
70255;PMS5003;57669;52.624;-1.688;2023-03-03T07:11:29;40;34;
70255;PMS5003;57669;52.624;-1.688;2023-03-03T07:13:53;42;40;
70255;PMS5003;57669;52.624;-1.688;2023-03-03T07:16:18;37;32;
70255;PMS5003;57669;52.624;-1.688;2023-03-03T07:18:45;43;40;
70255;PMS5003;57669;52.624;-1.688;2023-03-03T07:21:13;37;36;
70255;PMS5003;57669;52.624;-1.688;2023-03-03T07:23:35;40;40;
70255;PMS5003;57669;52.624;-1.688;2023-03-03T07:26:00;40;39;
70255;PMS5003;57669;52.624;-1.688;2023-03-03T07:28:26;26;26;
70255;PMS5003;57669;52.624;-1.688;2023-03-03T07:30:51;36;35;
70255;PMS5003;57669;52.624;-1.688;2023-03-03T07:33:18;35;34;
70255;PMS5003;57669;52.624;-1.688;2023-03-03T07:35:42;42;42;
70255;PMS5003;57669;52.624;-1.688;2023-03-03T07:40:34;50;44;
70255;PMS5003;57669;52.624;-1.688;2023-03-03T07:42:59;35;33;
70255;PMS5003;57669;52.624;-1.688;2023-03-03T07:45:25;42;40;
70255;PMS5003;57669;52.624;-1.688;2023-03-03T07:47:49;42;40;
70255;PMS5003;57669;52.624;-1.688;2023-03-03T07:50:15;35;33;
70255;PMS5003;57669;52.624;-1.688;2023-03-03T07:52:40;37;34;
70255;PMS5003;57669;52.624;-1.688;2023-03-03T07:57:33;42;39;
70255;PMS5003;57669;52.624;-1.688;2023-03-03T07:59:59;40;40;
70255;PMS5003;57669;52.624;-1.688;2023-03-03T08:04:47;38;37;
70255;PMS5003;57669;52.624;-1.688;2023-03-03T08:07:13;34;33;
70255;PMS5003;57669;52.624;-1.688;2023-03-03T08:09:42;43;41;
70255;PMS5003;57669;52.624;-1.688;2023-03-03T08:14:30;40;40;
70255;PMS5003;57669;52.624;-1.688;2023-03-03T08:16:55;36;35;
70255;PMS5003;57669;52.624;-1.688;2023-03-03T08:19:20;39;38;
70255;PMS5003;57669;52.624;-1.688;2023-03-03T08:21:45;32;30;
70255;PMS5003;57669;52.624;-1.688;2023-03-03T08:24:11;36;36;
70255;PMS5003;57669;52.624;-1.688;2023-03-03T08:26:36;35;33;
70255;PMS5003;57669;52.624;-1.688;2023-03-03T08:29:02;24;24;
70255;PMS5003;57669;52.624;-1.688;2023-03-03T08:31:27;23;23;
70255;PMS5003;57669;52.624;-1.688;2023-03-03T08:33:53;29;28;
70255;PMS5003;57669;52.624;-1.688;2023-03-03T08:36:19;24;23;
70255;PMS5003;57669;52.624;-1.688;2023-03-03T08:38:44;22;22;
70255;PMS5003;57669;52.624;-1.688;2023-03-03T08:41:10;20;20;
70255;PMS5003;57669;52.624;-1.688;2023-03-03T08:43:35;24;23;
70255;PMS5003;57669;52.624;-1.688;2023-03-03T08:46:02;20;19;
70255;PMS5003;57669;52.624;-1.688;2023-03-03T08:48:27;23;22;
70255;PMS5003;57669;52.624;-1.688;2023-03-03T08:50:52;22;21;
70255;PMS5003;57669;52.624;-1.688;2023-03-03T08:53:18;26;26;
70255;PMS5003;57669;52.624;-1.688;2023-03-03T08:55:43;27;25;
70255;PMS5003;57669;52.624;-1.688;2023-03-03T08:58:09;26;25;
70255;PMS5003;57669;52.624;-1.688;2023-03-03T09:00:34;20;20;
70255;PMS5003;57669;52.624;-1.688;2023-03-03T09:03:00;22;22;
70255;PMS5003;57669;52.624;-1.688;2023-03-03T09:05:26;18;17;
70255;PMS5003;57669;52.624;-1.688;2023-03-03T09:07:51;20;19;
70255;PMS5003;57669;52.624;-1.688;2023-03-03T09:10:17;19;18;
70255;PMS5003;57669;52.624;-1.688;2023-03-03T09:12:42;20;20;
70255;PMS5003;57669;52.624;-1.688;2023-03-03T09:15:12;26;24;
70255;PMS5003;57669;52.624;-1.688;2023-03-03T09:17:33;25;24;
70255;PMS5003;57669;52.624;-1.688;2023-03-03T09:19:58;29;26;
70255;PMS5003;57669;52.624;-1.688;2023-03-03T09:22:23;20;20;
70255;PMS5003;57669;52.624;-1.688;2023-03-03T09:24:49;23;22;
70255;PMS5003;57669;52.624;-1.688;2023-03-03T09:27:16;25;25;
70255;PMS5003;57669;52.624;-1.688;2023-03-03T09:29:39;25;24;
70255;PMS5003;57669;52.624;-1.688;2023-03-03T09:32:07;24;24;
70255;PMS5003;57669;52.624;-1.688;2023-03-03T09:34:36;26;26;
70255;PMS5003;57669;52.624;-1.688;2023-03-03T09:36:56;30;29;
70255;PMS5003;57669;52.624;-1.688;2023-03-03T09:39:22;22;22;
70255;PMS5003;57669;52.624;-1.688;2023-03-03T09:44:17;20;20;
70255;PMS5003;57669;52.624;-1.688;2023-03-03T09:46:39;27;26;
70255;PMS5003;57669;52.624;-1.688;2023-03-03T09:49:06;20;20;
70255;PMS5003;57669;52.624;-1.688;2023-03-03T09:51:33;22;22;
70255;PMS5003;57669;52.624;-1.688;2023-03-03T09:53:57;24;23;
70255;PMS5003;57669;52.624;-1.688;2023-03-03T09:56:20;18;16;
70255;PMS5003;57669;52.624;-1.688;2023-03-03T09:58:51;22;21;
70255;PMS5003;57669;52.624;-1.688;2023-03-03T10:01:17;21;18;
70255;PMS5003;57669;52.624;-1.688;2023-03-03T10:06:01;19;18;
70255;PMS5003;57669;52.624;-1.688;2023-03-03T10:08:28;20;17;
70255;PMS5003;57669;52.624;-1.688;2023-03-03T10:10:55;21;21;
70255;PMS5003;57669;52.624;-1.688;2023-03-03T10:13:20;22;21;
70255;PMS5003;57669;52.624;-1.688;2023-03-03T10:15:46;21;20;
70255;PMS5003;57669;52.624;-1.688;2023-03-03T10:18:11;20;20;
70255;PMS5003;57669;52.624;-1.688;2023-03-03T10:20:37;19;19;
70255;PMS5003;57669;52.624;-1.688;2023-03-03T10:23:01;27;27;
70255;PMS5003;57669;52.624;-1.688;2023-03-03T10:25:27;21;21;
70255;PMS5003;57669;52.624;-1.688;2023-03-03T10:27:53;15;14;
70255;PMS5003;57669;52.624;-1.688;2023-03-03T10:30:17;19;19;
70255;PMS5003;57669;52.624;-1.688;2023-03-03T10:32:43;15;14;
70255;PMS5003;57669;52.624;-1.688;2023-03-03T10:37:32;14;14;
70255;PMS5003;57669;52.624;-1.688;2023-03-03T10:40:00;12;11;
70255;PMS5003;57669;52.624;-1.688;2023-03-03T10:42:26;17;16;
70255;PMS5003;57669;52.624;-1.688;2023-03-03T10:44:52;15;13;
70255;PMS5003;57669;52.624;-1.688;2023-03-03T10:47:17;10;10;
70255;PMS5003;57669;52.624;-1.688;2023-03-03T10:49:42;14;14;
70255;PMS5003;57669;52.624;-1.688;2023-03-03T10:52:07;15;13;
70255;PMS5003;57669;52.624;-1.688;2023-03-03T10:54:32;13;13;
70255;PMS5003;57669;52.624;-1.688;2023-03-03T10:56:54;18;17;
70255;PMS5003;57669;52.624;-1.688;2023-03-03T10:59:24;15;15;
70255;PMS5003;57669;52.624;-1.688;2023-03-03T11:01:45;13;13;
70255;PMS5003;57669;52.624;-1.688;2023-03-03T11:04:13;11;11;
70255;PMS5003;57669;52.624;-1.688;2023-03-03T11:06:36;9;9;
70255;PMS5003;57669;52.624;-1.688;2023-03-03T11:09:01;8;8;
70255;PMS5003;57669;52.624;-1.688;2023-03-03T11:11:27;8;8;
70255;PMS5003;57669;52.624;-1.688;2023-03-03T11:13:50;8;8;
70255;PMS5003;57669;52.624;-1.688;2023-03-03T11:16:18;10;10;
70255;PMS5003;57669;52.624;-1.688;2023-03-03T11:21:07;8;8;
70255;PMS5003;57669;52.624;-1.688;2023-03-03T11:26:05;9;9;
70255;PMS5003;57669;52.624;-1.688;2023-03-03T11:28:24;9;8;
70255;PMS5003;57669;52.624;-1.688;2023-03-03T11:30:50;9;9;
70255;PMS5003;57669;52.624;-1.688;2023-03-03T11:33:13;12;12;
70255;PMS5003;57669;52.624;-1.688;2023-03-03T11:35:40;12;12;
70255;PMS5003;57669;52.624;-1.688;2023-03-03T11:38:06;10;10;
70255;PMS5003;57669;52.624;-1.688;2023-03-03T11:40:29;13;11;
70255;PMS5003;57669;52.624;-1.688;2023-03-03T11:42:57;11;10;
70255;PMS5003;57669;52.624;-1.688;2023-03-03T11:45:19;15;15;
70255;PMS5003;57669;52.624;-1.688;2023-03-03T11:47:46;15;14;
70255;PMS5003;57669;52.624;-1.688;2023-03-03T11:50:10;12;12;
70255;PMS5003;57669;52.624;-1.688;2023-03-03T11:52:36;7;7;
70255;PMS5003;57669;52.624;-1.688;2023-03-03T11:55:01;9;9;
70255;PMS5003;57669;52.624;-1.688;2023-03-03T11:57:26;9;9;
70255;PMS5003;57669;52.624;-1.688;2023-03-03T11:59:54;8;8;
70255;PMS5003;57669;52.624;-1.688;2023-03-03T12:02:22;9;9;
70255;PMS5003;57669;52.624;-1.688;2023-03-03T12:04:43;10;10;
70255;PMS5003;57669;52.624;-1.688;2023-03-03T12:07:12;15;14;
70255;PMS5003;57669;52.624;-1.688;2023-03-03T12:09:36;9;9;
70255;PMS5003;57669;52.624;-1.688;2023-03-03T12:12:00;9;9;
70255;PMS5003;57669;52.624;-1.688;2023-03-03T12:14:27;11;11;
70255;PMS5003;57669;52.624;-1.688;2023-03-03T12:16:50;10;10;
70255;PMS5003;57669;52.624;-1.688;2023-03-03T12:19:15;10;10;
70255;PMS5003;57669;52.624;-1.688;2023-03-03T12:21:43;14;13;
70255;PMS5003;57669;52.624;-1.688;2023-03-03T12:24:07;9;9;
70255;PMS5003;57669;52.624;-1.688;2023-03-03T12:26:31;13;12;
70255;PMS5003;57669;52.624;-1.688;2023-03-03T12:28:57;13;12;
70255;PMS5003;57669;52.624;-1.688;2023-03-03T12:31:25;13;13;
70255;PMS5003;57669;52.624;-1.688;2023-03-03T12:33:50;14;13;
70255;PMS5003;57669;52.624;-1.688;2023-03-03T12:36:15;11;11;
70255;PMS5003;57669;52.624;-1.688;2023-03-03T12:38:38;10;10;
70255;PMS5003;57669;52.624;-1.688;2023-03-03T12:41:04;16;16;
70255;PMS5003;57669;52.624;-1.688;2023-03-03T12:43:32;15;15;
70255;PMS5003;57669;52.624;-1.688;2023-03-03T12:45:55;16;15;
70255;PMS5003;57669;52.624;-1.688;2023-03-03T12:48:19;20;19;
70255;PMS5003;57669;52.624;-1.688;2023-03-03T12:50:47;19;19;
70255;PMS5003;57669;52.624;-1.688;2023-03-03T12:53:13;18;17;
70255;PMS5003;57669;52.624;-1.688;2023-03-03T12:55:38;20;20;
70255;PMS5003;57669;52.624;-1.688;2023-03-03T12:58:01;20;20;
70255;PMS5003;57669;52.624;-1.688;2023-03-03T13:00:27;15;15;
70255;PMS5003;57669;52.624;-1.688;2023-03-03T13:02:55;13;13;
70255;PMS5003;57669;52.624;-1.688;2023-03-03T13:05:19;13;13;
70255;PMS5003;57669;52.624;-1.688;2023-03-03T13:07:42;16;16;
70255;PMS5003;57669;52.624;-1.688;2023-03-03T13:10:08;13;13;
70255;PMS5003;57669;52.624;-1.688;2023-03-03T13:12:34;11;11;
70255;PMS5003;57669;52.624;-1.688;2023-03-03T13:15:00;16;16;
70255;PMS5003;57669;52.624;-1.688;2023-03-03T13:17:24;8;8;
70255;PMS5003;57669;52.624;-1.688;2023-03-03T13:19:49;12;12;
70255;PMS5003;57669;52.624;-1.688;2023-03-03T13:22:14;10;10;
70255;PMS5003;57669;52.624;-1.688;2023-03-03T13:24:38;11;10;
70255;PMS5003;57669;52.624;-1.688;2023-03-03T13:27:04;11;11;
70255;PMS5003;57669;52.624;-1.688;2023-03-03T13:29:29;13;12;
70255;PMS5003;57669;52.624;-1.688;2023-03-03T13:31:55;14;14;
70255;PMS5003;57669;52.624;-1.688;2023-03-03T13:34:24;13;13;
70255;PMS5003;57669;52.624;-1.688;2023-03-03T13:36:46;12;11;
70255;PMS5003;57669;52.624;-1.688;2023-03-03T13:39:13;10;9;
70255;PMS5003;57669;52.624;-1.688;2023-03-03T13:41:39;10;10;
70255;PMS5003;57669;52.624;-1.688;2023-03-03T13:44:03;10;9;
70255;PMS5003;57669;52.624;-1.688;2023-03-03T13:46:32;10;10;
70255;PMS5003;57669;52.624;-1.688;2023-03-03T13:49:01;12;12;
70255;PMS5003;57669;52.624;-1.688;2023-03-03T13:51:22;11;11;
70255;PMS5003;57669;52.624;-1.688;2023-03-03T13:53:46;12;11;
70255;PMS5003;57669;52.624;-1.688;2023-03-03T13:56:16;14;12;
70255;PMS5003;57669;52.624;-1.688;2023-03-03T13:58:37;10;10;
70255;PMS5003;57669;52.624;-1.688;2023-03-03T14:01:03;10;10;
70255;PMS5003;57669;52.624;-1.688;2023-03-03T14:03:31;9;8;
70255;PMS5003;57669;52.624;-1.688;2023-03-03T14:05:52;7;7;
70255;PMS5003;57669;52.624;-1.688;2023-03-03T14:08:21;11;11;
70255;PMS5003;57669;52.624;-1.688;2023-03-03T14:10:43;9;9;
70255;PMS5003;57669;52.624;-1.688;2023-03-03T14:13:08;10;10;
70255;PMS5003;57669;52.624;-1.688;2023-03-03T14:15:34;9;9;
70255;PMS5003;57669;52.624;-1.688;2023-03-03T14:18:05;9;9;
70255;PMS5003;57669;52.624;-1.688;2023-03-03T14:20:26;9;9;
70255;PMS5003;57669;52.624;-1.688;2023-03-03T14:22:51;8;7;
70255;PMS5003;57669;52.624;-1.688;2023-03-03T14:25:15;10;10;
70255;PMS5003;57669;52.624;-1.688;2023-03-03T14:27:51;12;11;
70255;PMS5003;57669;52.624;-1.688;2023-03-03T14:32:31;9;9;
70255;PMS5003;57669;52.624;-1.688;2023-03-03T14:34:56;11;11;
70255;PMS5003;57669;52.624;-1.688;2023-03-03T14:37:22;12;12;
70255;PMS5003;57669;52.624;-1.688;2023-03-03T14:39:47;10;9;
70255;PMS5003;57669;52.624;-1.688;2023-03-03T14:42:12;7;7;
70255;PMS5003;57669;52.624;-1.688;2023-03-03T14:44:46;8;8;
70255;PMS5003;57669;52.624;-1.688;2023-03-03T14:49:30;7;7;
70255;PMS5003;57669;52.624;-1.688;2023-03-03T14:51:56;7;7;
70255;PMS5003;57669;52.624;-1.688;2023-03-03T14:54:22;8;8;
70255;PMS5003;57669;52.624;-1.688;2023-03-03T14:59:15;11;11;
70255;PMS5003;57669;52.624;-1.688;2023-03-03T15:01:36;9;9;
70255;PMS5003;57669;52.624;-1.688;2023-03-03T15:04:03;9;8;
70255;PMS5003;57669;52.624;-1.688;2023-03-03T15:06:29;8;8;
70255;PMS5003;57669;52.624;-1.688;2023-03-03T15:08:54;9;9;
70255;PMS5003;57669;52.624;-1.688;2023-03-03T15:11:20;8;8;
70255;PMS5003;57669;52.624;-1.688;2023-03-03T15:13:44;9;9;
70255;PMS5003;57669;52.624;-1.688;2023-03-03T15:16:15;9;9;
70255;PMS5003;57669;52.624;-1.688;2023-03-03T15:18:49;7;7;
70255;PMS5003;57669;52.624;-1.688;2023-03-03T15:21:01;8;8;
70255;PMS5003;57669;52.624;-1.688;2023-03-03T15:23:29;10;10;
70255;PMS5003;57669;52.624;-1.688;2023-03-03T15:25:53;7;7;
70255;PMS5003;57669;52.624;-1.688;2023-03-03T15:28:21;9;8;
70255;PMS5003;57669;52.624;-1.688;2023-03-03T15:30:44;10;9;
70255;PMS5003;57669;52.624;-1.688;2023-03-03T15:33:11;8;8;
70255;PMS5003;57669;52.624;-1.688;2023-03-03T15:35:37;12;12;
70255;PMS5003;57669;52.624;-1.688;2023-03-03T15:38:02;9;9;
70255;PMS5003;57669;52.624;-1.688;2023-03-03T15:40:26;9;9;
70255;PMS5003;57669;52.624;-1.688;2023-03-03T15:42:53;9;8;
70255;PMS5003;57669;52.624;-1.688;2023-03-03T15:45:18;7;7;
70255;PMS5003;57669;52.624;-1.688;2023-03-03T15:47:46;8;8;
70255;PMS5003;57669;52.624;-1.688;2023-03-03T15:50:11;9;8;
70255;PMS5003;57669;52.624;-1.688;2023-03-03T15:52:39;8;8;
70255;PMS5003;57669;52.624;-1.688;2023-03-03T15:55:03;9;9;
70255;PMS5003;57669;52.624;-1.688;2023-03-03T15:57:26;8;8;
70255;PMS5003;57669;52.624;-1.688;2023-03-03T15:59:56;12;11;
70255;PMS5003;57669;52.624;-1.688;2023-03-03T16:02:16;14;13;
70255;PMS5003;57669;52.624;-1.688;2023-03-03T16:04:42;14;14;
70255;PMS5003;57669;52.624;-1.688;2023-03-03T16:07:10;11;11;
70255;PMS5003;57669;52.624;-1.688;2023-03-03T16:09:36;12;12;
70255;PMS5003;57669;52.624;-1.688;2023-03-03T16:11:58;11;11;
70255;PMS5003;57669;52.624;-1.688;2023-03-03T16:16:49;10;10;
70255;PMS5003;57669;52.624;-1.688;2023-03-03T16:19:18;11;10;
70255;PMS5003;57669;52.624;-1.688;2023-03-03T16:24:06;12;12;
70255;PMS5003;57669;52.624;-1.688;2023-03-03T16:26:33;13;11;
70255;PMS5003;57669;52.624;-1.688;2023-03-03T16:28:59;11;11;
70255;PMS5003;57669;52.624;-1.688;2023-03-03T16:31:23;10;8;
70255;PMS5003;57669;52.624;-1.688;2023-03-03T16:33:49;10;10;